Nord Imagination — 3FIA8 — position and weather

sailwx.info

Track history (hours):
 
Tides and Currents Weather Stations Pressure Air Temp Water Temp Dewpoint Dewpoint Depression Visibility Wind Speed Wind Dir Waves Ship Positions

Nord Imagination

Last reported at 2018-Apr-12 11:18 UTC. Time now 2018-Apr-26 13:36 UTC.
Position N 35°58' W 005°34'.
Warning: this ship's position is 14 days out of date.

Length 179 m; draft 11.1 m.

Type: Ship (hazmat cat D). MMSI: 354828000.

Date/timePositionNaut miles runAvg speedWind from/ knotsBaromVisibWave heightAir tempDewpointWater temp
2018-Apr-12 11:18N 35°58' W 005°34'310.0
2018-Apr-12 11:00N 35°58' W 005°31'5 9.3
2018-Apr-12 10:30N 35°59' W 005°25'5 9.7
2018-Apr-12 10:00N 35°56' W 005°21'1 2.5
2018-Apr-12 09:30N 35°55' W 005°20'0 0.1
2018-Apr-12 09:00N 35°55' W 005°20'0 0.0
2018-Apr-12 08:30N 35°55' W 005°20'0 0.1
2018-Apr-12 08:00N 35°55' W 005°20'0 0.1
2018-Apr-12 07:30N 35°55' W 005°20'0 0.1
2018-Apr-12 07:00N 35°55' W 005°20'0 0.1
2018-Apr-12 06:30N 35°55' W 005°20'0 0.0
2018-Apr-12 06:00N 35°55' W 005°20'0 0.0
2018-Apr-12 05:30N 35°55' W 005°20'0 0.2
2018-Apr-12 05:00N 35°55' W 005°20'0 0.2
2018-Apr-12 04:30N 35°55' W 005°20'0 0.1
2018-Apr-12 04:00N 35°55' W 005°20'0 0.0
2018-Apr-12 03:30N 35°55' W 005°20'0 0.0
2018-Apr-12 03:00N 35°55' W 005°20'0 0.0
2018-Apr-12 02:30N 35°55' W 005°20'0 0.0
2018-Apr-12 02:00N 35°55' W 005°20'0 0.0
2018-Apr-12 01:30N 35°55' W 005°20'0 0.0
2018-Apr-12 01:00N 35°55' W 005°20'0 0.0
2018-Apr-12 00:30N 35°55' W 005°20'0 0.1
2018-Apr-12 00:00N 35°55' W 005°20'0 0.0
2018-Apr-11 23:30N 35°55' W 005°20'0 0.0
2018-Apr-11 23:00N 35°55' W 005°20'0 0.0
2018-Apr-11 22:30N 35°55' W 005°20'0 0.0
2018-Apr-11 22:00N 35°55' W 005°20'0 0.0
2018-Apr-11 21:30N 35°55' W 005°20'0 0.0
2018-Apr-11 20:57N 35°55' W 005°20'0 0.2
2018-Apr-11 20:30N 35°55' W 005°20'2 3.3
2018-Apr-11 20:01N 35°55' W 005°18'2 3.8
2018-Apr-11 19:31N 35°56' W 005°16'4 7.2
2018-Apr-11 18:56N 35°56' W 005°11'2 0.1
2018-Apr-10 19:48N 35°58' W 005°12'1 5.0
2018-Apr-10 19:30N 35°57' W 005°14'3 6.4
2018-Apr-10 19:00N 35°56' W 005°18'2 3.4
2018-Apr-10 18:29N 35°55' W 005°20'0 0.1
2018-Apr-10 17:59N 35°55' W 005°19'0 0.0
2018-Apr-10 17:29N 35°55' W 005°19'0 0.0
2018-Apr-10 16:59N 35°55' W 005°19'0 0.1
2018-Apr-10 16:29N 35°55' W 005°19'0 0.1
2018-Apr-10 15:59N 35°55' W 005°19'0 0.0
2018-Apr-10 15:29N 35°55' W 005°19'0 0.0
2018-Apr-10 14:59N 35°55' W 005°19'0 0.0
2018-Apr-10 14:29N 35°55' W 005°19'0 0.1
2018-Apr-10 13:59N 35°55' W 005°20'0 0.0
2018-Apr-10 13:29N 35°55' W 005°19'0 0.0
2018-Apr-10 12:59N 35°55' W 005°20'0 0.1
2018-Apr-10 12:29N 35°55' W 005°20'0 0.1
2018-Apr-10 11:59N 35°55' W 005°20'0 0.0
2018-Apr-10 11:29N 35°55' W 005°20'0 0.0
2018-Apr-10 10:59N 35°55' W 005°20'0 0.0
2018-Apr-10 10:29N 35°55' W 005°20'0 0.1
2018-Apr-10 09:59N 35°55' W 005°20'0 0.0
2018-Apr-10 09:29N 35°55' W 005°20'0 0.0
2018-Apr-10 08:59N 35°55' W 005°20'0 0.1
2018-Apr-10 08:29N 35°55' W 005°20'0 0.0
2018-Apr-10 07:59N 35°55' W 005°20'0 0.0
2018-Apr-10 07:29N 35°55' W 005°20'0 0.0
2018-Apr-10 06:56N 35°55' W 005°20'0 0.0
2018-Apr-10 06:29N 35°55' W 005°20'0 0.2
2018-Apr-10 06:00N 35°55' W 005°20'1 1.8
2018-Apr-10 05:30N 35°55' W 005°19'2 4.7
2018-Apr-10 05:00N 35°56' W 005°16'4 7.1
2018-Apr-10 04:30N 35°57' W 005°11'  
2018-Apr-07 15:34N 38°45' E 008°41'212.9
2018-Apr-07 15:25N 38°45' E 008°43'513.1
2018-Apr-07 15:01N 38°46' E 008°50'1511.7
2018-Apr-07 13:43N 38°57' E 009°04'312.8
2018-Apr-07 13:30N 38°59' E 009°06'611.0
2018-Apr-07 13:00N 39°05' E 009°07'4 8.2
2018-Apr-07 12:30N 39°06' E 009°02'0 0.6
2018-Apr-07 11:59N 39°05' E 009°02'0 0.0
2018-Apr-07 11:29N 39°05' E 009°02'0 0.0
2018-Apr-07 10:59N 39°05' E 009°02'0 0.0
2018-Apr-07 10:29N 39°05' E 009°02'0 0.0
2018-Apr-07 09:59N 39°05' E 009°02'0 0.0
2018-Apr-07 09:29N 39°05' E 009°02'0 0.0
2018-Apr-07 08:59N 39°05' E 009°02'0 0.0
2018-Apr-07 08:29N 39°05' E 009°02'0 0.0
2018-Apr-07 07:59N 39°05' E 009°02'0 0.0
2018-Apr-07 07:29N 39°05' E 009°02'0 0.0
2018-Apr-07 06:59N 39°05' E 009°02'0 0.0
2018-Apr-07 06:29N 39°05' E 009°02'0 0.0
2018-Apr-07 05:59N 39°05' E 009°02'0 0.0
2018-Apr-07 05:29N 39°05' E 009°02'0 0.0
2018-Apr-07 04:59N 39°05' E 009°02'0 0.0
2018-Apr-07 04:29N 39°05' E 009°02'0 0.0
2018-Apr-07 03:59N 39°05' E 009°02'0 0.0
2018-Apr-07 03:29N 39°05' E 009°02'0 0.0
2018-Apr-07 02:59N 39°05' E 009°02'0 0.0
2018-Apr-07 02:29N 39°05' E 009°02'0 0.0
2018-Apr-07 01:59N 39°05' E 009°02'0 0.0
2018-Apr-07 01:29N 39°05' E 009°02'0 0.0
2018-Apr-07 00:59N 39°05' E 009°02'0 0.0
2018-Apr-07 00:29N 39°05' E 009°02'0 0.0
2018-Apr-06 23:59N 39°05' E 009°02'0 0.0
2018-Apr-06 23:29N 39°05' E 009°02'0 0.0
2018-Apr-06 22:59N 39°05' E 009°02'0 0.0
2018-Apr-06 22:29N 39°05' E 009°02'0 0.0
2018-Apr-06 21:59N 39°05' E 009°02'0 0.0
2018-Apr-06 21:29N 39°05' E 009°02'0 0.0
2018-Apr-06 20:59N 39°05' E 009°02'0 0.0
2018-Apr-06 20:29N 39°05' E 009°02'0 0.0
2018-Apr-06 19:56N 39°05' E 009°02'0 0.0
2018-Apr-06 19:29N 39°05' E 009°02'0 0.0
2018-Apr-06 18:59N 39°05' E 009°02'0 0.0
2018-Apr-06 18:29N 39°05' E 009°02'0 0.0
2018-Apr-06 17:59N 39°05' E 009°02'0 0.0
2018-Apr-06 17:29N 39°05' E 009°02'0 0.0
2018-Apr-06 16:59N 39°05' E 009°02'0 0.0
2018-Apr-06 16:29N 39°05' E 009°02'0 0.0
2018-Apr-06 15:59N 39°05' E 009°02'0 0.0
2018-Apr-06 15:29N 39°05' E 009°02'0 0.0
2018-Apr-06 14:59N 39°05' E 009°02'0 0.0
2018-Apr-06 14:29N 39°05' E 009°02'0 0.0
2018-Apr-06 13:59N 39°05' E 009°02'0 0.0
2018-Apr-06 13:29N 39°05' E 009°02'0 0.0
2018-Apr-06 12:59N 39°05' E 009°02'0 0.0
2018-Apr-06 12:29N 39°05' E 009°02'0 0.0
2018-Apr-06 11:59N 39°05' E 009°02'0 0.0
2018-Apr-06 11:29N 39°05' E 009°02'0 0.0
2018-Apr-06 10:59N 39°05' E 009°02'0 0.0
2018-Apr-06 10:29N 39°05' E 009°02'0 0.0
2018-Apr-06 09:59N 39°05' E 009°02'0 0.0
2018-Apr-06 09:29N 39°05' E 009°02'0 0.0
2018-Apr-06 08:59N 39°05' E 009°02'0 0.0
2018-Apr-06 08:29N 39°05' E 009°02'0 0.0
2018-Apr-06 07:59N 39°05' E 009°02'0 0.0
2018-Apr-06 07:29N 39°05' E 009°02'0 0.0
2018-Apr-06 06:59N 39°05' E 009°02'0 0.0
2018-Apr-06 06:29N 39°05' E 009°02'0 0.0
2018-Apr-06 05:59N 39°05' E 009°02'0 0.0
2018-Apr-06 05:29N 39°05' E 009°02'0 0.0
2018-Apr-06 04:59N 39°05' E 009°02'0 0.0
2018-Apr-06 04:29N 39°05' E 009°02'0 0.0
2018-Apr-06 03:59N 39°05' E 009°02'0 0.0
2018-Apr-06 03:29N 39°05' E 009°02'0 0.0
2018-Apr-06 02:59N 39°05' E 009°02'0 0.0
2018-Apr-06 02:29N 39°05' E 009°02'0 0.0
2018-Apr-06 01:59N 39°05' E 009°02'0 0.0
2018-Apr-06 01:29N 39°05' E 009°02'0 0.0
2018-Apr-06 00:59N 39°05' E 009°02'0 0.0
2018-Apr-06 00:26N 39°05' E 009°02'0 0.0
2018-Apr-05 23:59N 39°05' E 009°02'0 0.0
2018-Apr-05 23:29N 39°05' E 009°02'0 0.0
2018-Apr-05 22:59N 39°05' E 009°02'0 0.0
2018-Apr-05 22:29N 39°05' E 009°02'0 0.0
2018-Apr-05 21:59N 39°05' E 009°02'0 0.0
2018-Apr-05 21:29N 39°05' E 009°02'0 0.0
2018-Apr-05 20:59N 39°05' E 009°02'0 0.0
2018-Apr-05 20:29N 39°05' E 009°02'0 0.0
2018-Apr-05 20:00N 39°05' E 009°02'1 2.4
2018-Apr-05 19:30N 39°05' E 009°04'1 2.4
2018-Apr-05 18:59N 39°04' E 009°04'0 0.1
2018-Apr-05 18:29N 39°04' E 009°04'0 0.0
2018-Apr-05 17:59N 39°04' E 009°04'0 0.0
2018-Apr-05 17:29N 39°04' E 009°04'0 0.0
2018-Apr-05 16:59N 39°04' E 009°04'0 0.0
2018-Apr-05 16:29N 39°04' E 009°04'0 0.0
2018-Apr-05 15:59N 39°04' E 009°04'0 0.0
2018-Apr-05 15:29N 39°04' E 009°04'0 0.0
2018-Apr-05 14:59N 39°04' E 009°04'0 0.1
2018-Apr-05 14:29N 39°04' E 009°04'0 0.1
2018-Apr-05 13:59N 39°04' E 009°04'0 0.0
2018-Apr-05 13:29N 39°04' E 009°04'0 0.4
2018-Apr-05 12:59N 39°04' E 009°04'0 0.0
2018-Apr-05 12:29N 39°04' E 009°04'0 0.0
2018-Apr-05 11:59N 39°04' E 009°04'0 0.0
2018-Apr-05 11:29N 39°04' E 009°04'0 0.0
2018-Apr-05 10:56N 39°04' E 009°04'0 0.0
2018-Apr-05 10:29N 39°04' E 009°04'0 0.0
2018-Apr-05 09:59N 39°04' E 009°04'0 0.1
2018-Apr-05 09:29N 39°04' E 009°04'0 0.0
2018-Apr-05 08:59N 39°04' E 009°04'0 0.1
2018-Apr-05 08:29N 39°04' E 009°04'0 0.1
2018-Apr-05 07:59N 39°04' E 009°04'0 0.0
2018-Apr-05 07:29N 39°04' E 009°04'0 0.3
2018-Apr-05 06:59N 39°04' E 009°04'0 0.1
2018-Apr-05 06:29N 39°04' E 009°04'0 0.0
2018-Apr-05 05:56N 39°04' E 009°04'0 0.0
2018-Apr-05 05:29N 39°04' E 009°04'0 0.0
2018-Apr-05 04:59N 39°04' E 009°04'0 0.0
2018-Apr-05 04:29N 39°04' E 009°04'0 0.2
2018-Apr-05 03:59N 39°04' E 009°04'0 0.2
2018-Apr-05 03:23N 39°04' E 009°04'0 0.2
2018-Apr-05 02:59N 39°04' E 009°04'0 0.0
2018-Apr-05 02:29N 39°04' E 009°04'0 0.0
2018-Apr-05 01:59N 39°04' E 009°04'0 0.0
2018-Apr-05 01:29N 39°04' E 009°04'0 0.1
2018-Apr-05 00:59N 39°04' E 009°04'0 0.0
2018-Apr-05 00:29N 39°04' E 009°04'0 0.0
2018-Apr-04 23:59N 39°04' E 009°04'0 0.0
2018-Apr-04 23:29N 39°04' E 009°04'0 0.0
2018-Apr-04 22:59N 39°04' E 009°04'0 0.1
2018-Apr-04 22:29N 39°04' E 009°04'0 0.0
2018-Apr-04 21:59N 39°04' E 009°04'0 0.0
2018-Apr-04 21:29N 39°04' E 009°04'0 0.1
2018-Apr-04 20:59N 39°04' E 009°04'0 0.0
2018-Apr-04 20:29N 39°04' E 009°04'0 0.0
2018-Apr-04 19:59N 39°04' E 009°04'0 0.1
2018-Apr-04 19:29N 39°04' E 009°04'0 0.0
2018-Apr-04 18:56N 39°04' E 009°04'0 0.0
2018-Apr-04 18:29N 39°04' E 009°04'0 0.0
2018-Apr-04 17:59N 39°04' E 009°04'0 0.0
2018-Apr-04 17:29N 39°04' E 009°04'0 0.0
2018-Apr-04 16:59N 39°04' E 009°04'0 0.0
2018-Apr-04 16:29N 39°04' E 009°04'0 0.0
2018-Apr-04 15:59N 39°04' E 009°04'0 0.0
2018-Apr-04 15:29N 39°04' E 009°04'0 0.0
2018-Apr-04 14:59N 39°04' E 009°04'0 0.0
2018-Apr-04 14:29N 39°04' E 009°04'0 0.0
2018-Apr-04 13:59N 39°04' E 009°04'0 0.0
2018-Apr-04 13:29N 39°04' E 009°04'0 0.0
2018-Apr-04 12:59N 39°04' E 009°04'0 0.0
2018-Apr-04 12:29N 39°04' E 009°04'0 0.0
2018-Apr-04 11:59N 39°04' E 009°04'0 0.0
2018-Apr-04 11:29N 39°04' E 009°04'0 0.0
2018-Apr-04 10:59N 39°04' E 009°04'0 0.0
2018-Apr-04 10:29N 39°04' E 009°04'0 0.0
2018-Apr-04 09:59N 39°04' E 009°04'0 0.0
2018-Apr-04 09:29N 39°04' E 009°04'0 0.0
2018-Apr-04 08:59N 39°04' E 009°04'0 0.0
2018-Apr-04 08:29N 39°04' E 009°04'0 0.0
2018-Apr-04 07:59N 39°04' E 009°04'0 0.1
2018-Apr-04 07:29N 39°04' E 009°04'0 0.0
2018-Apr-04 06:59N 39°04' E 009°04'0 0.0
2018-Apr-04 06:29N 39°04' E 009°04'0 0.1
2018-Apr-04 05:59N 39°04' E 009°04'0 0.0
2018-Apr-04 05:29N 39°04' E 009°04'0 0.0
2018-Apr-04 04:59N 39°04' E 009°04'0 0.0
2018-Apr-04 04:26N 39°04' E 009°04'0 0.0
2018-Apr-04 03:59N 39°04' E 009°04'0 0.0
2018-Apr-04 03:29N 39°04' E 009°04'0 0.0
2018-Apr-04 02:59N 39°04' E 009°04'0 0.0
2018-Apr-04 02:29N 39°04' E 009°04'0 0.0
2018-Apr-04 01:59N 39°04' E 009°04'0 0.1
2018-Apr-04 01:29N 39°04' E 009°04'0 0.0
2018-Apr-04 00:56N 39°04' E 009°04'0 0.0
2018-Apr-04 00:29N 39°04' E 009°04'0 0.0
2018-Apr-03 23:59N 39°04' E 009°04'0 0.0
2018-Apr-03 23:29N 39°04' E 009°04'0 0.0
2018-Apr-03 22:59N 39°04' E 009°04'0 0.0
2018-Apr-03 22:26N 39°04' E 009°04'0 0.0
2018-Apr-03 21:59N 39°04' E 009°04'0 0.1
2018-Apr-03 21:29N 39°04' E 009°04'0 0.0
2018-Apr-03 20:59N 39°04' E 009°04'0 0.0
2018-Apr-03 20:29N 39°04' E 009°04'0 0.1
2018-Apr-03 19:59N 39°04' E 009°04'0 0.0
2018-Apr-03 19:29N 39°04' E 009°04'0 0.1
2018-Apr-03 18:59N 39°04' E 009°04'0 0.0
2018-Apr-03 18:29N 39°04' E 009°04'0 0.1
2018-Apr-03 17:59N 39°04' E 009°04'0 0.1
2018-Apr-03 17:29N 39°04' E 009°04'0 0.0
2018-Apr-03 16:59N 39°04' E 009°04'0 0.0
2018-Apr-03 16:29N 39°04' E 009°04'0 0.1
2018-Apr-03 15:59N 39°04' E 009°04'0 0.1
2018-Apr-03 15:29N 39°04' E 009°04'0 0.0
2018-Apr-03 14:59N 39°04' E 009°04'0 0.1
2018-Apr-03 14:29N 39°04' E 009°04'0 0.0
2018-Apr-03 13:56N 39°04' E 009°04'0 0.0
2018-Apr-03 13:29N 39°04' E 009°04'0 0.0
2018-Apr-03 12:59N 39°04' E 009°04'0 0.0
2018-Apr-03 12:29N 39°04' E 009°04'0 0.1
2018-Apr-03 11:59N 39°04' E 009°04'0 0.0
2018-Apr-03 11:29N 39°04' E 009°04'0 0.1
2018-Apr-03 10:59N 39°04' E 009°04'0 0.1
2018-Apr-03 10:26N 39°04' E 009°04'0 0.1
2018-Apr-03 09:59N 39°04' E 009°04'0 0.0
2018-Apr-03 09:29N 39°04' E 009°04'0 0.1
2018-Apr-03 08:59N 39°04' E 009°04'0 0.0
2018-Apr-03 08:29N 39°04' E 009°04'0 0.1
2018-Apr-03 07:59N 39°04' E 009°04'0 0.0
2018-Apr-03 07:29N 39°04' E 009°04'0 0.1
2018-Apr-03 06:59N 39°04' E 009°04'0 0.1
2018-Apr-03 06:29N 39°04' E 009°04'0 0.0
2018-Apr-03 05:59N 39°04' E 009°04'0 0.1
2018-Apr-03 05:29N 39°04' E 009°04'0 0.1
2018-Apr-03 04:59N 39°04' E 009°04'0 0.1
2018-Apr-03 04:29N 39°04' E 009°04'0 0.0
2018-Apr-03 03:59N 39°04' E 009°04'0 0.0
2018-Apr-03 03:29N 39°04' E 009°04'0 0.1
2018-Apr-03 02:59N 39°04' E 009°04'0 0.1
2018-Apr-03 02:29N 39°04' E 009°04'0 0.0
2018-Apr-03 01:59N 39°04' E 009°04'0 0.0
2018-Apr-03 01:29N 39°04' E 009°04'0 0.0
2018-Apr-03 00:59N 39°04' E 009°04'0 0.0
2018-Apr-03 00:29N 39°04' E 009°04'0 0.0
2018-Apr-02 23:59N 39°04' E 009°04'0 0.0
2018-Apr-02 23:29N 39°04' E 009°04'0 0.0
2018-Apr-02 22:59N 39°04' E 009°04'0 0.0
2018-Apr-02 22:29N 39°04' E 009°04'0 0.0
2018-Apr-02 21:59N 39°04' E 009°04'0 0.0
2018-Apr-02 21:29N 39°04' E 009°04'0 0.0
2018-Apr-02 20:59N 39°04' E 009°04'0 0.0
2018-Apr-02 20:29N 39°04' E 009°04'0 0.0
2018-Apr-02 19:59N 39°04' E 009°04'0 0.1
2018-Apr-02 19:29N 39°04' E 009°04'0 0.0
2018-Apr-02 18:59N 39°04' E 009°04'0 0.1
2018-Apr-02 18:29N 39°04' E 009°04'0 0.1
2018-Apr-02 17:59N 39°04' E 009°04'0 0.0
2018-Apr-02 17:29N 39°04' E 009°04'0 0.1
2018-Apr-02 16:59N 39°04' E 009°04'0 0.0
2018-Apr-02 16:29N 39°04' E 009°04'0 0.1
2018-Apr-02 15:59N 39°04' E 009°04'0 0.0
2018-Apr-02 15:29N 39°04' E 009°04'0 0.0
2018-Apr-02 14:59N 39°04' E 009°04'0 0.0
2018-Apr-02 14:29N 39°04' E 009°04'0 0.0
2018-Apr-02 13:59N 39°04' E 009°04'0 0.0
2018-Apr-02 13:29N 39°04' E 009°04'0 0.0
2018-Apr-02 12:59N 39°04' E 009°04'0 0.0
2018-Apr-02 12:29N 39°04' E 009°04'0 0.0
2018-Apr-02 11:59N 39°04' E 009°04'0 0.0
2018-Apr-02 11:29N 39°04' E 009°04'  
Track history (hours):
 
Tides and Currents Weather Stations Pressure Air Temp Water Temp Dewpoint Dewpoint Depression Visibility Wind Speed Wind Dir Waves Ship Positions

Nord Imagination

Last reported at 2018-Apr-12 11:18 UTC. Time now 2018-Apr-26 13:36 UTC.
Position N 35°58' W 005°34'.
Warning: this ship's position is 14 days out of date.

Length 179 m; draft 11.1 m.

Type: Ship (hazmat cat D). MMSI: 354828000.

Date/timePositionNaut miles runAvg speedWind from/ knotsBaromVisibWave heightAir tempDewpointWater temp
2018-Apr-12 11:18N 35°58' W 005°34'310.0
2018-Apr-12 11:00N 35°58' W 005°31'5 9.3
2018-Apr-12 10:30N 35°59' W 005°25'5 9.7
2018-Apr-12 10:00N 35°56' W 005°21'1 2.5
2018-Apr-12 09:30N 35°55' W 005°20'0 0.1
2018-Apr-12 09:00N 35°55' W 005°20'0 0.0
2018-Apr-12 08:30N 35°55' W 005°20'0 0.1
2018-Apr-12 08:00N 35°55' W 005°20'0 0.1
2018-Apr-12 07:30N 35°55' W 005°20'0 0.1
2018-Apr-12 07:00N 35°55' W 005°20'0 0.1
2018-Apr-12 06:30N 35°55' W 005°20'0 0.0
2018-Apr-12 06:00N 35°55' W 005°20'0 0.0
2018-Apr-12 05:30N 35°55' W 005°20'0 0.2
2018-Apr-12 05:00N 35°55' W 005°20'0 0.2
2018-Apr-12 04:30N 35°55' W 005°20'0 0.1
2018-Apr-12 04:00N 35°55' W 005°20'0 0.0
2018-Apr-12 03:30N 35°55' W 005°20'0 0.0
2018-Apr-12 03:00N 35°55' W 005°20'0 0.0
2018-Apr-12 02:30N 35°55' W 005°20'0 0.0
2018-Apr-12 02:00N 35°55' W 005°20'0 0.0
2018-Apr-12 01:30N 35°55' W 005°20'0 0.0
2018-Apr-12 01:00N 35°55' W 005°20'0 0.0
2018-Apr-12 00:30N 35°55' W 005°20'0 0.1
2018-Apr-12 00:00N 35°55' W 005°20'0 0.0
2018-Apr-11 23:30N 35°55' W 005°20'0 0.0
2018-Apr-11 23:00N 35°55' W 005°20'0 0.0
2018-Apr-11 22:30N 35°55' W 005°20'0 0.0
2018-Apr-11 22:00N 35°55' W 005°20'0 0.0
2018-Apr-11 21:30N 35°55' W 005°20'0 0.0
2018-Apr-11 20:57N 35°55' W 005°20'0 0.2
2018-Apr-11 20:30N 35°55' W 005°20'2 3.3
2018-Apr-11 20:01N 35°55' W 005°18'2 3.8
2018-Apr-11 19:31N 35°56' W 005°16'4 7.2
2018-Apr-11 18:56N 35°56' W 005°11'2 0.1
2018-Apr-10 19:48N 35°58' W 005°12'1 5.0
2018-Apr-10 19:30N 35°57' W 005°14'3 6.4
2018-Apr-10 19:00N 35°56' W 005°18'2 3.4
2018-Apr-10 18:29N 35°55' W 005°20'0 0.1
2018-Apr-10 17:59N 35°55' W 005°19'0 0.0
2018-Apr-10 17:29N 35°55' W 005°19'0 0.0
2018-Apr-10 16:59N 35°55' W 005°19'0 0.1
2018-Apr-10 16:29N 35°55' W 005°19'0 0.1
2018-Apr-10 15:59N 35°55' W 005°19'0 0.0
2018-Apr-10 15:29N 35°55' W 005°19'0 0.0
2018-Apr-10 14:59N 35°55' W 005°19'0 0.0
2018-Apr-10 14:29N 35°55' W 005°19'0 0.1
2018-Apr-10 13:59N 35°55' W 005°20'0 0.0
2018-Apr-10 13:29N 35°55' W 005°19'0 0.0
2018-Apr-10 12:59N 35°55' W 005°20'0 0.1
2018-Apr-10 12:29N 35°55' W 005°20'0 0.1
2018-Apr-10 11:59N 35°55' W 005°20'0 0.0
2018-Apr-10 11:29N 35°55' W 005°20'0 0.0
2018-Apr-10 10:59N 35°55' W 005°20'0 0.0
2018-Apr-10 10:29N 35°55' W 005°20'0 0.1
2018-Apr-10 09:59N 35°55' W 005°20'0 0.0
2018-Apr-10 09:29N 35°55' W 005°20'0 0.0
2018-Apr-10 08:59N 35°55' W 005°20'0 0.1
2018-Apr-10 08:29N 35°55' W 005°20'0 0.0
2018-Apr-10 07:59N 35°55' W 005°20'0 0.0
2018-Apr-10 07:29N 35°55' W 005°20'0 0.0
2018-Apr-10 06:56N 35°55' W 005°20'0 0.0
2018-Apr-10 06:29N 35°55' W 005°20'0 0.2
2018-Apr-10 06:00N 35°55' W 005°20'1 1.8
2018-Apr-10 05:30N 35°55' W 005°19'2 4.7
2018-Apr-10 05:00N 35°56' W 005°16'4 7.1
2018-Apr-10 04:30N 35°57' W 005°11'  
2018-Apr-07 15:34N 38°45' E 008°41'212.9
2018-Apr-07 15:25N 38°45' E 008°43'513.1
2018-Apr-07 15:01N 38°46' E 008°50'1511.7
2018-Apr-07 13:43N 38°57' E 009°04'312.8
2018-Apr-07 13:30N 38°59' E 009°06'611.0
2018-Apr-07 13:00N 39°05' E 009°07'4 8.2
2018-Apr-07 12:30N 39°06' E 009°02'0 0.6
2018-Apr-07 11:59N 39°05' E 009°02'0 0.0
2018-Apr-07 11:29N 39°05' E 009°02'0 0.0
2018-Apr-07 10:59N 39°05' E 009°02'0 0.0
2018-Apr-07 10:29N 39°05' E 009°02'0 0.0
2018-Apr-07 09:59N 39°05' E 009°02'0 0.0
2018-Apr-07 09:29N 39°05' E 009°02'0 0.0
2018-Apr-07 08:59N 39°05' E 009°02'0 0.0
2018-Apr-07 08:29N 39°05' E 009°02'0 0.0
2018-Apr-07 07:59N 39°05' E 009°02'0 0.0
2018-Apr-07 07:29N 39°05' E 009°02'0 0.0
2018-Apr-07 06:59N 39°05' E 009°02'0 0.0
2018-Apr-07 06:29N 39°05' E 009°02'0 0.0
2018-Apr-07 05:59N 39°05' E 009°02'0 0.0
2018-Apr-07 05:29N 39°05' E 009°02'0 0.0
2018-Apr-07 04:59N 39°05' E 009°02'0 0.0
2018-Apr-07 04:29N 39°05' E 009°02'0 0.0
2018-Apr-07 03:59N 39°05' E 009°02'0 0.0
2018-Apr-07 03:29N 39°05' E 009°02'0 0.0
2018-Apr-07 02:59N 39°05' E 009°02'0 0.0
2018-Apr-07 02:29N 39°05' E 009°02'0 0.0
2018-Apr-07 01:59N 39°05' E 009°02'0 0.0
2018-Apr-07 01:29N 39°05' E 009°02'0 0.0
2018-Apr-07 00:59N 39°05' E 009°02'0 0.0
2018-Apr-07 00:29N 39°05' E 009°02'0 0.0
2018-Apr-06 23:59N 39°05' E 009°02'0 0.0
2018-Apr-06 23:29N 39°05' E 009°02'0 0.0
2018-Apr-06 22:59N 39°05' E 009°02'0 0.0
2018-Apr-06 22:29N 39°05' E 009°02'0 0.0
2018-Apr-06 21:59N 39°05' E 009°02'0 0.0
2018-Apr-06 21:29N 39°05' E 009°02'0 0.0
2018-Apr-06 20:59N 39°05' E 009°02'0 0.0
2018-Apr-06 20:29N 39°05' E 009°02'0 0.0
2018-Apr-06 19:56N 39°05' E 009°02'0 0.0
2018-Apr-06 19:29N 39°05' E 009°02'0 0.0
2018-Apr-06 18:59N 39°05' E 009°02'0 0.0
2018-Apr-06 18:29N 39°05' E 009°02'0 0.0
2018-Apr-06 17:59N 39°05' E 009°02'0 0.0
2018-Apr-06 17:29N 39°05' E 009°02'0 0.0
2018-Apr-06 16:59N 39°05' E 009°02'0 0.0
2018-Apr-06 16:29N 39°05' E 009°02'0 0.0
2018-Apr-06 15:59N 39°05' E 009°02'0 0.0
2018-Apr-06 15:29N 39°05' E 009°02'0 0.0
2018-Apr-06 14:59N 39°05' E 009°02'0 0.0
2018-Apr-06 14:29N 39°05' E 009°02'0 0.0
2018-Apr-06 13:59N 39°05' E 009°02'0 0.0
2018-Apr-06 13:29N 39°05' E 009°02'0 0.0
2018-Apr-06 12:59N 39°05' E 009°02'0 0.0
2018-Apr-06 12:29N 39°05' E 009°02'0 0.0
2018-Apr-06 11:59N 39°05' E 009°02'0 0.0
2018-Apr-06 11:29N 39°05' E 009°02'0 0.0
2018-Apr-06 10:59N 39°05' E 009°02'0 0.0
2018-Apr-06 10:29N 39°05' E 009°02'0 0.0
2018-Apr-06 09:59N 39°05' E 009°02'0 0.0
2018-Apr-06 09:29N 39°05' E 009°02'0 0.0
2018-Apr-06 08:59N 39°05' E 009°02'0 0.0
2018-Apr-06 08:29N 39°05' E 009°02'0 0.0
2018-Apr-06 07:59N 39°05' E 009°02'0 0.0
2018-Apr-06 07:29N 39°05' E 009°02'0 0.0
2018-Apr-06 06:59N 39°05' E 009°02'0 0.0
2018-Apr-06 06:29N 39°05' E 009°02'0 0.0
2018-Apr-06 05:59N 39°05' E 009°02'0 0.0
2018-Apr-06 05:29N 39°05' E 009°02'0 0.0
2018-Apr-06 04:59N 39°05' E 009°02'0 0.0
2018-Apr-06 04:29N 39°05' E 009°02'0 0.0
2018-Apr-06 03:59N 39°05' E 009°02'0 0.0
2018-Apr-06 03:29N 39°05' E 009°02'0 0.0
2018-Apr-06 02:59N 39°05' E 009°02'0 0.0
2018-Apr-06 02:29N 39°05' E 009°02'0 0.0
2018-Apr-06 01:59N 39°05' E 009°02'0 0.0
2018-Apr-06 01:29N 39°05' E 009°02'0 0.0
2018-Apr-06 00:59N 39°05' E 009°02'0 0.0
2018-Apr-06 00:26N 39°05' E 009°02'0 0.0
2018-Apr-05 23:59N 39°05' E 009°02'0 0.0
2018-Apr-05 23:29N 39°05' E 009°02'0 0.0
2018-Apr-05 22:59N 39°05' E 009°02'0 0.0
2018-Apr-05 22:29N 39°05' E 009°02'0 0.0
2018-Apr-05 21:59N 39°05' E 009°02'0 0.0
2018-Apr-05 21:29N 39°05' E 009°02'0 0.0
2018-Apr-05 20:59N 39°05' E 009°02'0 0.0
2018-Apr-05 20:29N 39°05' E 009°02'0 0.0
2018-Apr-05 20:00N 39°05' E 009°02'1 2.4
2018-Apr-05 19:30N 39°05' E 009°04'1 2.4
2018-Apr-05 18:59N 39°04' E 009°04'0 0.1
2018-Apr-05 18:29N 39°04' E 009°04'0 0.0
2018-Apr-05 17:59N 39°04' E 009°04'0 0.0
2018-Apr-05 17:29N 39°04' E 009°04'0 0.0
2018-Apr-05 16:59N 39°04' E 009°04'0 0.0
2018-Apr-05 16:29N 39°04' E 009°04'0 0.0
2018-Apr-05 15:59N 39°04' E 009°04'0 0.0
2018-Apr-05 15:29N 39°04' E 009°04'0 0.0
2018-Apr-05 14:59N 39°04' E 009°04'0 0.1
2018-Apr-05 14:29N 39°04' E 009°04'0 0.1
2018-Apr-05 13:59N 39°04' E 009°04'0 0.0
2018-Apr-05 13:29N 39°04' E 009°04'0 0.4
2018-Apr-05 12:59N 39°04' E 009°04'0 0.0
2018-Apr-05 12:29N 39°04' E 009°04'0 0.0
2018-Apr-05 11:59N 39°04' E 009°04'0 0.0
2018-Apr-05 11:29N 39°04' E 009°04'0 0.0
2018-Apr-05 10:56N 39°04' E 009°04'0 0.0
2018-Apr-05 10:29N 39°04' E 009°04'0 0.0
2018-Apr-05 09:59N 39°04' E 009°04'0 0.1
2018-Apr-05 09:29N 39°04' E 009°04'0 0.0
2018-Apr-05 08:59N 39°04' E 009°04'0 0.1
2018-Apr-05 08:29N 39°04' E 009°04'0 0.1
2018-Apr-05 07:59N 39°04' E 009°04'0 0.0
2018-Apr-05 07:29N 39°04' E 009°04'0 0.3
2018-Apr-05 06:59N 39°04' E 009°04'0 0.1
2018-Apr-05 06:29N 39°04' E 009°04'0 0.0
2018-Apr-05 05:56N 39°04' E 009°04'0 0.0
2018-Apr-05 05:29N 39°04' E 009°04'0 0.0
2018-Apr-05 04:59N 39°04' E 009°04'0 0.0
2018-Apr-05 04:29N 39°04' E 009°04'0 0.2
2018-Apr-05 03:59N 39°04' E 009°04'0 0.2
2018-Apr-05 03:23N 39°04' E 009°04'0 0.2
2018-Apr-05 02:59N 39°04' E 009°04'0 0.0
2018-Apr-05 02:29N 39°04' E 009°04'0 0.0
2018-Apr-05 01:59N 39°04' E 009°04'0 0.0
2018-Apr-05 01:29N 39°04' E 009°04'0 0.1
2018-Apr-05 00:59N 39°04' E 009°04'0 0.0
2018-Apr-05 00:29N 39°04' E 009°04'0 0.0
2018-Apr-04 23:59N 39°04' E 009°04'0 0.0
2018-Apr-04 23:29N 39°04' E 009°04'0 0.0
2018-Apr-04 22:59N 39°04' E 009°04'0 0.1
2018-Apr-04 22:29N 39°04' E 009°04'0 0.0
2018-Apr-04 21:59N 39°04' E 009°04'0 0.0
2018-Apr-04 21:29N 39°04' E 009°04'0 0.1
2018-Apr-04 20:59N 39°04' E 009°04'0 0.0
2018-Apr-04 20:29N 39°04' E 009°04'0 0.0
2018-Apr-04 19:59N 39°04' E 009°04'0 0.1
2018-Apr-04 19:29N 39°04' E 009°04'0 0.0
2018-Apr-04 18:56N 39°04' E 009°04'0 0.0
2018-Apr-04 18:29N 39°04' E 009°04'0 0.0
2018-Apr-04 17:59N 39°04' E 009°04'0 0.0
2018-Apr-04 17:29N 39°04' E 009°04'0 0.0
2018-Apr-04 16:59N 39°04' E 009°04'0 0.0
2018-Apr-04 16:29N 39°04' E 009°04'0 0.0
2018-Apr-04 15:59N 39°04' E 009°04'0 0.0
2018-Apr-04 15:29N 39°04' E 009°04'0 0.0
2018-Apr-04 14:59N 39°04' E 009°04'0 0.0
2018-Apr-04 14:29N 39°04' E 009°04'0 0.0
2018-Apr-04 13:59N 39°04' E 009°04'0 0.0
2018-Apr-04 13:29N 39°04' E 009°04'0 0.0
2018-Apr-04 12:59N 39°04' E 009°04'0 0.0
2018-Apr-04 12:29N 39°04' E 009°04'0 0.0
2018-Apr-04 11:59N 39°04' E 009°04'0 0.0
2018-Apr-04 11:29N 39°04' E 009°04'0 0.0
2018-Apr-04 10:59N 39°04' E 009°04'0 0.0
2018-Apr-04 10:29N 39°04' E 009°04'0 0.0
2018-Apr-04 09:59N 39°04' E 009°04'0 0.0
2018-Apr-04 09:29N 39°04' E 009°04'0 0.0
2018-Apr-04 08:59N 39°04' E 009°04'0 0.0
2018-Apr-04 08:29N 39°04' E 009°04'0 0.0
2018-Apr-04 07:59N 39°04' E 009°04'0 0.1
2018-Apr-04 07:29N 39°04' E 009°04'0 0.0
2018-Apr-04 06:59N 39°04' E 009°04'0 0.0
2018-Apr-04 06:29N 39°04' E 009°04'0 0.1
2018-Apr-04 05:59N 39°04' E 009°04'0 0.0
2018-Apr-04 05:29N 39°04' E 009°04'0 0.0
2018-Apr-04 04:59N 39°04' E 009°04'0 0.0
2018-Apr-04 04:26N 39°04' E 009°04'0 0.0
2018-Apr-04 03:59N 39°04' E 009°04'0 0.0
2018-Apr-04 03:29N 39°04' E 009°04'0 0.0
2018-Apr-04 02:59N 39°04' E 009°04'0 0.0
2018-Apr-04 02:29N 39°04' E 009°04'0 0.0
2018-Apr-04 01:59N 39°04' E 009°04'0 0.1
2018-Apr-04 01:29N 39°04' E 009°04'0 0.0
2018-Apr-04 00:56N 39°04' E 009°04'0 0.0
2018-Apr-04 00:29N 39°04' E 009°04'0 0.0
2018-Apr-03 23:59N 39°04' E 009°04'0 0.0
2018-Apr-03 23:29N 39°04' E 009°04'0 0.0
2018-Apr-03 22:59N 39°04' E 009°04'0 0.0
2018-Apr-03 22:26N 39°04' E 009°04'0 0.0
2018-Apr-03 21:59N 39°04' E 009°04'0 0.1
2018-Apr-03 21:29N 39°04' E 009°04'0 0.0
2018-Apr-03 20:59N 39°04' E 009°04'0 0.0
2018-Apr-03 20:29N 39°04' E 009°04'0 0.1
2018-Apr-03 19:59N 39°04' E 009°04'0 0.0
2018-Apr-03 19:29N 39°04' E 009°04'0 0.1
2018-Apr-03 18:59N 39°04' E 009°04'0 0.0
2018-Apr-03 18:29N 39°04' E 009°04'0 0.1
2018-Apr-03 17:59N 39°04' E 009°04'0 0.1
2018-Apr-03 17:29N 39°04' E 009°04'0 0.0
2018-Apr-03 16:59N 39°04' E 009°04'0 0.0
2018-Apr-03 16:29N 39°04' E 009°04'0 0.1
2018-Apr-03 15:59N 39°04' E 009°04'0 0.1
2018-Apr-03 15:29N 39°04' E 009°04'0 0.0
2018-Apr-03 14:59N 39°04' E 009°04'0 0.1
2018-Apr-03 14:29N 39°04' E 009°04'0 0.0
2018-Apr-03 13:56N 39°04' E 009°04'0 0.0
2018-Apr-03 13:29N 39°04' E 009°04'0 0.0
2018-Apr-03 12:59N 39°04' E 009°04'0 0.0
2018-Apr-03 12:29N 39°04' E 009°04'0 0.1
2018-Apr-03 11:59N 39°04' E 009°04'0 0.0
2018-Apr-03 11:29N 39°04' E 009°04'0 0.1
2018-Apr-03 10:59N 39°04' E 009°04'0 0.1
2018-Apr-03 10:26N 39°04' E 009°04'0 0.1
2018-Apr-03 09:59N 39°04' E 009°04'0 0.0
2018-Apr-03 09:29N 39°04' E 009°04'0 0.1
2018-Apr-03 08:59N 39°04' E 009°04'0 0.0
2018-Apr-03 08:29N 39°04' E 009°04'0 0.1
2018-Apr-03 07:59N 39°04' E 009°04'0 0.0
2018-Apr-03 07:29N 39°04' E 009°04'0 0.1
2018-Apr-03 06:59N 39°04' E 009°04'0 0.1
2018-Apr-03 06:29N 39°04' E 009°04'0 0.0
2018-Apr-03 05:59N 39°04' E 009°04'0 0.1
2018-Apr-03 05:29N 39°04' E 009°04'0 0.1
2018-Apr-03 04:59N 39°04' E 009°04'0 0.1
2018-Apr-03 04:29N 39°04' E 009°04'0 0.0
2018-Apr-03 03:59N 39°04' E 009°04'0 0.0
2018-Apr-03 03:29N 39°04' E 009°04'0 0.1
2018-Apr-03 02:59N 39°04' E 009°04'0 0.1
2018-Apr-03 02:29N 39°04' E 009°04'0 0.0
2018-Apr-03 01:59N 39°04' E 009°04'0 0.0
2018-Apr-03 01:29N 39°04' E 009°04'0 0.0
2018-Apr-03 00:59N 39°04' E 009°04'0 0.0
2018-Apr-03 00:29N 39°04' E 009°04'0 0.0
2018-Apr-02 23:59N 39°04' E 009°04'0 0.0
2018-Apr-02 23:29N 39°04' E 009°04'0 0.0
2018-Apr-02 22:59N 39°04' E 009°04'0 0.0
2018-Apr-02 22:29N 39°04' E 009°04'0 0.0
2018-Apr-02 21:59N 39°04' E 009°04'0 0.0
2018-Apr-02 21:29N 39°04' E 009°04'0 0.0
2018-Apr-02 20:59N 39°04' E 009°04'0 0.0
2018-Apr-02 20:29N 39°04' E 009°04'0 0.0
2018-Apr-02 19:59N 39°04' E 009°04'0 0.1
2018-Apr-02 19:29N 39°04' E 009°04'0 0.0
2018-Apr-02 18:59N 39°04' E 009°04'0 0.1
2018-Apr-02 18:29N 39°04' E 009°04'0 0.1
2018-Apr-02 17:59N 39°04' E 009°04'0 0.0
2018-Apr-02 17:29N 39°04' E 009°04'0 0.1
2018-Apr-02 16:59N 39°04' E 009°04'0 0.0
2018-Apr-02 16:29N 39°04' E 009°04'0 0.1
2018-Apr-02 15:59N 39°04' E 009°04'0 0.0
2018-Apr-02 15:29N 39°04' E 009°04'0 0.0
2018-Apr-02 14:59N 39°04' E 009°04'0 0.0
2018-Apr-02 14:29N 39°04' E 009°04'0 0.0
2018-Apr-02 13:59N 39°04' E 009°04'0 0.0
2018-Apr-02 13:29N 39°04' E 009°04'0 0.0
2018-Apr-02 12:59N 39°04' E 009°04'0 0.0
2018-Apr-02 12:29N 39°04' E 009°04'0 0.0
2018-Apr-02 11:59N 39°04' E 009°04'0 0.0
2018-Apr-02 11:29N 39°04' E 009°04'  

Dump ship's entire track history